Gainesville Regional Airport
KGNV : now visible

Airfield :











YOU CAN JOIN US ON...

 
LOGIN :

Register | Disclaimer

   EN    FR    IT 

 









Legend :    VFR   Marginal VFR   IFR   Intensive IFR   Very Intensive IFR
Visi :
Ceiling :
>= 8 km
>= 3000ft
5 to 8 km
1000 to 3000 ft
1500m to 5 km
500 to 1000 ft
800 to 1500m
200 to 500 ft
< 800m
< 200 ft
Symbols :   Thunderstorms  Fog  Heavy snow  Heavy precipitations  Wind > 20 kt






- Airport Elevation : 152 ft
- IATA code : GNV


KGNV - Gainesville Regional

CURRENT METAR :
  • 200953Z AUTO 27012G18KT FEW014 OVC032 23/21 A2984 RMK AO2 SLP102 T02280206 TSNO $

EXPIRED METARs :
  • 200921Z AUTO 27011KT SCT015 BKN019 OVC036 23/21 A2983 RMK AO2 T02280206 TSNO $
  • 200853Z AUTO 26011KT FEW013 OVC034 23/21 A2982 RMK AO2 SLP093 T02280211 53005 TSNO $
  • 200810Z AUTO 25008KT SCT025 BKN032 23/21 A2980 RMK AO2 T02280211 TSNO $
  • 200753Z AUTO 24009KT SCT013 BKN025 23/22 A2980 RMK AO2 SLP089 T02280217 TSNO $
  • 200653Z AUTO 24009KT BKN013 23/22 A2980 RMK AO2 SLP088 T02330217 TSNO $

TAF KGNV
Valid from the 20 at 06:00 until the 21 at 06:00 UTC


200537Z 2006/2106 24008KT 6SM BR SCT006 BKN015
TEMPO 2008/2012 BKN006
FM201200 27005KT 6SM BR SCT012 BKN020
FM201500 27007KT P6SM SCT030
FM202200 VRB03KT P6SM FEW250



MET'MAP, your aeronautical weather chart ! - Copyright ORBIFLY December 2007 - Disclaimer

ORBIFLY MET'MAP TEAM :

Programming & Development : Alexandra Zaïnal
Concept & Development : Baudouin d'Aumeries
Co-Development & Prog : Marc-Olivier Méhu
Technical & hardware support : Manuel Goepfert

Contact : metmap@orbifly.com




SOURCES & CREDITS :

   NOAA       Earth
Advisory